Time;durP1;ratioP1;P1;durP2;ratioP2;P2;SDS_P1;SDS_P2;PMS_P1;PMS_P2;Temp;Humidity;BMP_temperature;BMP_pressure;BME280_temperature;BME280_humidity;BME280_pressure;Samples;Min_cycle;Max_cycle;Signal;HPM_P1;HPM_P2
2023/12/19 00:00:26;;;;;;;50.92;24.23;;;;;;;;;;5143561;27;20130;-58
2023/12/19 00:02:52;;;;;;;47.28;24.25;;;;;;;;;;5162405;27;20062;-58
2023/12/19 00:05:19;;;;;;;51.85;24.75;;;;;;;;;;5147451;27;20083;-57
2023/12/19 00:07:46;;;;;;;50.67;24.67;;;;;;;;;;5146075;27;20061;-57
2023/12/19 00:10:12;;;;;;;54.22;25.15;;;;;;;;;;5144467;27;20047;-57
2023/12/19 00:12:39;;;;;;;44.92;24.10;;;;;;;;;;5143201;27;20054;-58
2023/12/19 00:15:05;;;;;;;50.65;24.60;;;;;;;;;;5143450;27;20062;-56
2023/12/19 00:17:32;;;;;;;54.15;25.85;;;;;;;;;;5143825;27;20067;-58
2023/12/19 00:19:58;;;;;;;45.63;24.85;;;;;;;;;;5146902;27;20055;-58
2023/12/19 00:22:25;;;;;;;45.35;25.17;;;;;;;;;;5146352;27;20051;-58
2023/12/19 00:24:51;;;;;;;47.53;23.33;;;;;;;;;;5148276;27;20047;-57
2023/12/19 00:27:18;;;;;;;47.22;25.85;;;;;;;;;;5142102;27;20062;-58
2023/12/19 00:29:44;;;;;;;47.78;25.10;;;;;;;;;;5147474;27;20051;-58
2023/12/19 00:32:10;;;;;;;53.92;25.33;;;;;;;;;;5147190;27;20127;-57
2023/12/19 00:34:37;;;;;;;46.78;24.50;;;;;;;;;;5147553;27;20235;-58
2023/12/19 00:37:03;;;;;;;51.67;26.40;;;;;;;;;;5148546;27;20048;-58
2023/12/19 00:39:30;;;;;;;48.92;26.50;;;;;;;;;;5157369;27;20058;-58
2023/12/19 00:41:56;;;;;;;50.00;27.13;;;;;;;;;;5147014;27;20055;-58
2023/12/19 00:44:23;;;;;;;57.15;25.98;;;;;;;;;;5160267;27;20109;-57
2023/12/19 00:46:49;;;;;;;54.22;25.50;;;;;;;;;;5148068;27;20477;-58
2023/12/19 00:49:16;;;;;;;50.50;26.50;;;;;;;;;;5150477;27;20051;-56
2023/12/19 00:51:43;;;;;;;55.13;26.70;;;;;;;;;;5157779;27;20135;-57
2023/12/19 00:54:09;;;;;;;55.03;25.30;;;;;;;;;;5146966;27;20051;-57
2023/12/19 00:56:37;;;;;;;52.72;27.13;;;;;;;;;;5143666;27;20060;-58
2023/12/19 00:59:03;;;;;;;61.38;27.35;;;;;;;;;;5146898;27;20055;-56
2023/12/19 01:01:29;;;;;;;54.60;27.58;;;;;;;;;;5151907;27;20046;-58
2023/12/19 01:03:56;;;;;;;61.35;28.95;;;;;;;;;;5165818;27;20109;-57
2023/12/19 01:06:22;;;;;;;65.13;28.50;;;;;;;;;;5162181;27;20051;-58
2023/12/19 01:08:49;;;;;;;51.78;26.48;;;;;;;;;;5146797;27;20058;-58
2023/12/19 01:11:15;;;;;;;60.42;28.52;;;;;;;;;;5147565;27;20528;-57
2023/12/19 01:13:42;;;;;;;60.53;25.98;;;;;;;;;;5145012;27;20081;-58
2023/12/19 01:16:08;;;;;;;60.45;28.83;;;;;;;;;;5148728;27;20120;-58
2023/12/19 01:18:35;;;;;;;58.53;27.85;;;;;;;;;;5148723;27;20470;-57
2023/12/19 01:21:01;;;;;;;53.55;27.40;;;;;;;;;;5146515;27;20555;-58
2023/12/19 01:23:28;;;;;;;66.15;28.08;;;;;;;;;;5158774;27;20536;-58
2023/12/19 01:25:54;;;;;;;64.35;28.67;;;;;;;;;;5146299;27;20055;-58
2023/12/19 01:28:21;;;;;;;57.78;28.05;;;;;;;;;;5150983;27;20057;-58
2023/12/19 01:30:47;;;;;;;63.78;29.40;;;;;;;;;;5152331;27;20520;-58
2023/12/19 01:33:14;;;;;;;62.25;28.45;;;;;;;;;;5147299;27;20097;-58
2023/12/19 01:35:41;;;;;;;62.95;29.48;;;;;;;;;;5145182;27;20147;-57
2023/12/19 01:38:07;;;;;;;56.53;28.33;;;;;;;;;;5146778;27;20536;-57
2023/12/19 01:40:33;;;;;;;57.97;27.55;;;;;;;;;;5152328;27;20054;-58
2023/12/19 01:43:00;;;;;;;56.22;25.73;;;;;;;;;;5156703;27;20082;-58
2023/12/19 01:45:28;;;;;;;54.47;26.42;;;;;;;;;;5146202;27;20061;-57
2023/12/19 01:47:54;;;;;;;52.45;25.80;;;;;;;;;;5163980;27;20784;-58
2023/12/19 01:50:21;;;;;;;50.80;26.45;;;;;;;;;;5160389;27;20058;-57
2023/12/19 01:52:52;;;;;;;49.97;25.48;;;;;;;;;;5161968;27;20054;-58
2023/12/19 01:55:19;;;;;;;56.47;26.08;;;;;;;;;;5160717;27;20569;-58
2023/12/19 01:57:46;;;;;;;52.58;26.98;;;;;;;;;;5150305;27;20082;-58
2023/12/19 02:00:13;;;;;;;55.63;25.77;;;;;;;;;;5147191;27;20051;-56
2023/12/19 02:02:43;;;;;;;52.42;25.48;;;;;;;;;;5159782;27;20138;-57
2023/12/19 02:05:10;;;;;;;48.15;24.73;;;;;;;;;;5159655;27;20111;-57
2023/12/19 02:07:37;;;;;;;50.17;26.23;;;;;;;;;;5149884;27;20051;-57
2023/12/19 02:10:03;;;;;;;51.85;25.48;;;;;;;;;;5162399;27;20138;-58
2023/12/19 02:12:30;;;;;;;45.97;25.13;;;;;;;;;;5157083;27;20059;-58
2023/12/19 02:14:57;;;;;;;50.97;25.15;;;;;;;;;;5147734;27;20053;-58
2023/12/19 02:17:24;;;;;;;47.40;24.45;;;;;;;;;;5144750;27;20047;-57
2023/12/19 02:19:54;;;;;;;52.72;26.13;;;;;;;;;;5146156;27;20100;-57
2023/12/19 02:22:21;;;;;;;45.45;23.90;;;;;;;;;;5145155;27;20135;-57
2023/12/19 02:24:48;;;;;;;56.88;25.52;;;;;;;;;;5144538;27;20535;-58
2023/12/19 02:27:16;;;;;;;50.10;25.00;;;;;;;;;;5145067;27;20055;-58
2023/12/19 02:29:42;;;;;;;49.33;25.05;;;;;;;;;;5127397;27;20131;-58
2023/12/19 02:32:09;;;;;;;47.97;25.30;;;;;;;;;;5145783;27;20055;-59
2023/12/19 02:34:36;;;;;;;54.55;23.95;;;;;;;;;;5144529;27;20331;-57
2023/12/19 02:37:03;;;;;;;45.05;24.15;;;;;;;;;;5141372;27;20051;-58
2023/12/19 02:39:29;;;;;;;43.83;25.05;;;;;;;;;;5142750;27;20540;-58
2023/12/19 02:41:55;;;;;;;50.00;24.63;;;;;;;;;;5150043;27;20123;-57
2023/12/19 02:44:22;;;;;;;47.58;25.10;;;;;;;;;;5144665;27;20861;-58
2023/12/19 02:46:48;;;;;;;51.58;25.00;;;;;;;;;;5145794;27;20057;-58
2023/12/19 02:49:15;;;;;;;46.92;23.27;;;;;;;;;;5146390;27;20574;-58
2023/12/19 02:51:42;;;;;;;44.80;24.73;;;;;;;;;;5145427;27;20055;-57
2023/12/19 02:54:08;;;;;;;42.13;23.15;;;;;;;;;;5151077;27;20146;-56
2023/12/19 02:56:35;;;;;;;42.45;23.92;;;;;;;;;;5150183;27;20047;-57
2023/12/19 02:59:02;;;;;;;42.20;22.98;;;;;;;;;;5145266;27;20511;-57
2023/12/19 03:01:28;;;;;;;44.08;23.95;;;;;;;;;;5154319;27;20135;-56
2023/12/19 03:03:55;;;;;;;38.35;21.02;;;;;;;;;;5145160;27;20051;-57
2023/12/19 03:06:21;;;;;;;45.17;24.40;;;;;;;;;;5150687;27;20051;-57
2023/12/19 03:08:48;;;;;;;47.25;24.90;;;;;;;;;;5144932;27;20047;-57
2023/12/19 03:11:15;;;;;;;53.20;25.92;;;;;;;;;;5145039;27;20055;-54
2023/12/19 03:13:41;;;;;;;52.05;25.80;;;;;;;;;;5139611;27;20470;-58
2023/12/19 03:16:08;;;;;;;49.00;25.15;;;;;;;;;;5144798;27;20414;-58
2023/12/19 03:18:34;;;;;;;59.00;29.27;;;;;;;;;;5151625;27;20062;-57
2023/12/19 03:21:01;;;;;;;59.90;30.13;;;;;;;;;;5144603;27;20062;-58
2023/12/19 03:23:28;;;;;;;61.72;28.73;;;;;;;;;;5144218;27;20047;-58
2023/12/19 03:25:54;;;;;;;63.70;29.40;;;;;;;;;;5132296;27;20055;-58
2023/12/19 03:28:21;;;;;;;59.85;29.17;;;;;;;;;;5143816;27;20051;-57
2023/12/19 03:30:47;;;;;;;55.92;27.63;;;;;;;;;;5147227;27;20051;-58
2023/12/19 03:33:14;;;;;;;61.22;29.60;;;;;;;;;;5144761;27;20622;-58
2023/12/19 03:35:41;;;;;;;58.53;29.63;;;;;;;;;;5146311;27;20501;-56
2023/12/19 03:38:07;;;;;;;66.68;29.08;;;;;;;;;;5146763;27;20523;-58
2023/12/19 03:40:35;;;;;;;58.45;29.38;;;;;;;;;;5144187;27;20056;-57
2023/12/19 03:43:03;;;;;;;62.92;28.75;;;;;;;;;;5153768;27;20134;-58
2023/12/19 03:45:29;;;;;;;57.83;28.02;;;;;;;;;;5144789;27;20052;-58
2023/12/19 03:47:55;;;;;;;55.78;27.73;;;;;;;;;;5146264;27;20104;-58
2023/12/19 03:50:22;;;;;;;54.95;27.08;;;;;;;;;;5144845;27;20047;-58
2023/12/19 03:52:49;;;;;;;58.33;27.17;;;;;;;;;;5144285;27;20573;-57
2023/12/19 03:55:15;;;;;;;52.47;26.23;;;;;;;;;;5159185;27;20051;-56
2023/12/19 03:57:41;;;;;;;45.30;25.42;;;;;;;;;;5148033;27;20051;-57
2023/12/19 04:00:08;;;;;;;57.13;25.92;;;;;;;;;;5154213;27;20134;-58
2023/12/19 04:02:35;;;;;;;51.22;26.77;;;;;;;;;;5159501;27;20085;-58
2023/12/19 04:05:01;;;;;;;54.67;27.77;;;;;;;;;;5147462;27;20131;-58
2023/12/19 04:07:28;;;;;;;56.17;27.27;;;;;;;;;;5155952;27;20086;-58
2023/12/19 04:09:54;;;;;;;51.28;26.50;;;;;;;;;;5148081;27;20043;-57
2023/12/19 04:12:20;;;;;;;52.45;26.33;;;;;;;;;;5147790;27;20115;-56
2023/12/19 04:14:47;;;;;;;43.78;24.35;;;;;;;;;;5147385;27;20124;-58
2023/12/19 04:17:14;;;;;;;52.25;26.58;;;;;;;;;;5147989;27;20055;-57
2023/12/19 04:19:41;;;;;;;46.40;23.63;;;;;;;;;;5147380;27;20051;-58
2023/12/19 04:22:08;;;;;;;55.45;25.92;;;;;;;;;;5147548;27;20507;-57
2023/12/19 04:24:34;;;;;;;41.10;22.60;;;;;;;;;;5150817;27;20058;-58
2023/12/19 04:27:01;;;;;;;40.03;21.25;;;;;;;;;;5146525;27;20075;-56
2023/12/19 04:29:27;;;;;;;39.85;21.40;;;;;;;;;;5148258;27;20051;-56
2023/12/19 04:31:54;;;;;;;38.28;21.15;;;;;;;;;;5154307;27;20104;-56
2023/12/19 04:34:20;;;;;;;36.40;20.25;;;;;;;;;;5147744;27;20134;-56
2023/12/19 04:36:47;;;;;;;35.10;18.20;;;;;;;;;;5156427;27;20065;-57
2023/12/19 04:39:13;;;;;;;33.75;18.15;;;;;;;;;;5154993;27;20058;-57
2023/12/19 04:41:40;;;;;;;32.80;18.40;;;;;;;;;;5146908;27;20047;-56
2023/12/19 04:44:06;;;;;;;36.22;19.42;;;;;;;;;;5147861;27;20059;-57
2023/12/19 04:46:33;;;;;;;33.47;21.35;;;;;;;;;;5160622;27;20157;-58
2023/12/19 04:48:59;;;;;;;35.97;20.80;;;;;;;;;;5147444;27;20074;-56
2023/12/19 04:51:26;;;;;;;36.65;21.70;;;;;;;;;;5152099;27;20104;-57
2023/12/19 04:53:53;;;;;;;42.67;23.27;;;;;;;;;;5147561;27;20108;-54
2023/12/19 04:56:19;;;;;;;38.28;22.48;;;;;;;;;;5147701;27;20074;-57
2023/12/19 04:58:46;;;;;;;41.95;23.13;;;;;;;;;;5147947;27;20069;-56
2023/12/19 05:01:13;;;;;;;43.78;23.00;;;;;;;;;;5148209;27;20508;-57
2023/12/19 05:03:41;;;;;;;39.22;21.70;;;;;;;;;;5151988;27;20416;-55
2023/12/19 05:06:08;;;;;;;48.78;22.85;;;;;;;;;;5147273;27;20058;-58
2023/12/19 05:08:35;;;;;;;47.13;22.45;;;;;;;;;;5145441;27;20051;-58
2023/12/19 05:11:01;;;;;;;33.03;18.23;;;;;;;;;;5152056;27;20126;-57
2023/12/19 05:13:27;;;;;;;34.30;19.48;;;;;;;;;;5150741;27;20371;-56
2023/12/19 05:15:54;;;;;;;34.85;19.33;;;;;;;;;;5146719;27;20050;-57
2023/12/19 05:18:20;;;;;;;32.45;19.35;;;;;;;;;;5147018;27;20100;-58
2023/12/19 05:20:47;;;;;;;34.75;18.52;;;;;;;;;;5146758;27;20063;-58
2023/12/19 05:23:14;;;;;;;28.00;15.65;;;;;;;;;;5146438;27;20074;-57
2023/12/19 05:25:40;;;;;;;23.55;15.15;;;;;;;;;;5152687;27;20054;-57
2023/12/19 05:28:07;;;;;;;26.90;14.27;;;;;;;;;;5145782;27;20827;-58
2023/12/19 05:30:33;;;;;;;24.85;15.90;;;;;;;;;;5155543;27;20129;-56
2023/12/19 05:33:00;;;;;;;24.10;14.35;;;;;;;;;;5146825;27;20097;-57
2023/12/19 05:35:26;;;;;;;23.35;14.88;;;;;;;;;;5145676;27;20063;-58
2023/12/19 05:37:52;;;;;;;21.88;14.25;;;;;;;;;;5136110;27;20109;-57
2023/12/19 05:40:19;;;;;;;21.48;14.60;;;;;;;;;;5146260;27;20055;-58
2023/12/19 05:42:45;;;;;;;24.67;15.23;;;;;;;;;;5158286;27;20050;-59
2023/12/19 05:45:13;;;;;;;21.42;13.48;;;;;;;;;;5141977;27;20058;-56
2023/12/19 05:47:39;;;;;;;22.23;13.95;;;;;;;;;;5147130;27;20104;-59
2023/12/19 05:50:06;;;;;;;23.17;13.32;;;;;;;;;;5149381;27;20497;-59
2023/12/19 05:52:32;;;;;;;22.88;13.07;;;;;;;;;;5139776;27;20058;-58
2023/12/19 05:55:00;;;;;;;22.55;14.73;;;;;;;;;;5146025;27;20134;-58
2023/12/19 05:57:26;;;;;;;23.05;14.45;;;;;;;;;;5146190;27;20082;-58
2023/12/19 05:59:53;;;;;;;23.73;14.32;;;;;;;;;;5146146;27;20111;-56
2023/12/19 06:02:21;;;;;;;21.70;13.90;;;;;;;;;;5166693;27;20093;-57
2023/12/19 06:04:49;;;;;;;24.77;14.63;;;;;;;;;;5125200;27;20434;-58
2023/12/19 06:07:16;;;;;;;25.70;14.80;;;;;;;;;;5139723;27;20051;-57
2023/12/19 06:09:42;;;;;;;21.92;13.77;;;;;;;;;;5138105;27;20847;-58
2023/12/19 06:12:11;;;;;;;27.83;15.45;;;;;;;;;;5162253;27;20057;-58
2023/12/19 06:14:37;;;;;;;22.00;14.25;;;;;;;;;;5143476;27;20136;-58
2023/12/19 06:17:04;;;;;;;23.38;12.80;;;;;;;;;;5152241;27;20051;-58
2023/12/19 06:19:30;;;;;;;21.52;13.40;;;;;;;;;;5142270;27;20059;-57
2023/12/19 06:21:57;;;;;;;21.83;13.50;;;;;;;;;;5146216;27;20066;-58
2023/12/19 06:24:24;;;;;;;20.02;12.82;;;;;;;;;;5147535;27;20138;-57
2023/12/19 06:26:50;;;;;;;20.95;14.05;;;;;;;;;;5144362;27;20055;-58
2023/12/19 06:29:17;;;;;;;20.50;13.38;;;;;;;;;;5144204;27;20642;-57
2023/12/19 06:31:46;;;;;;;22.70;13.68;;;;;;;;;;5158144;27;20843;-58
2023/12/19 06:34:13;;;;;;;21.60;13.52;;;;;;;;;;5145809;27;20103;-57
2023/12/19 06:36:41;;;;;;;21.63;13.07;;;;;;;;;;5154634;27;20062;-58
2023/12/19 06:39:08;;;;;;;20.67;14.65;;;;;;;;;;5146184;27;22181;-57
2023/12/19 06:41:35;;;;;;;23.02;15.82;;;;;;;;;;5136197;27;20051;-58
2023/12/19 06:44:02;;;;;;;27.70;16.42;;;;;;;;;;5145032;27;20154;-58
2023/12/19 06:46:28;;;;;;;25.45;16.20;;;;;;;;;;5136089;27;20047;-58
2023/12/19 06:48:54;;;;;;;26.42;17.85;;;;;;;;;;5145324;27;20050;-57
2023/12/19 06:51:22;;;;;;;27.20;17.55;;;;;;;;;;5145517;27;20869;-57
2023/12/19 06:53:49;;;;;;;27.00;16.23;;;;;;;;;;5145096;27;20053;-57
2023/12/19 06:56:16;;;;;;;22.95;16.60;;;;;;;;;;5143769;27;20051;-57
2023/12/19 06:58:42;;;;;;;26.45;17.00;;;;;;;;;;5145108;27;20142;-58
2023/12/19 07:01:09;;;;;;;26.30;16.83;;;;;;;;;;5139978;27;20045;-56
2023/12/19 07:03:36;;;;;;;25.70;17.30;;;;;;;;;;5145423;27;20100;-58
2023/12/19 07:06:03;;;;;;;31.00;17.92;;;;;;;;;;5145889;27;20128;-58
2023/12/19 07:08:32;;;;;;;30.23;19.17;;;;;;;;;;5144674;27;20104;-58
2023/12/19 07:11:09;;;;;;;30.67;18.50;;;;;;;;;;5145057;27;20066;-56
2023/12/19 07:13:36;;;;;;;35.33;19.70;;;;;;;;;;5144536;27;20526;-59
2023/12/19 07:16:03;;;;;;;33.78;20.15;;;;;;;;;;5145104;27;20074;-58
2023/12/19 07:18:29;;;;;;;32.15;18.63;;;;;;;;;;5144883;27;20054;-57
2023/12/19 07:20:56;;;;;;;31.30;19.98;;;;;;;;;;5144857;27;20090;-58
2023/12/19 07:23:23;;;;;;;36.10;22.25;;;;;;;;;;5145345;27;20142;-56
2023/12/19 07:25:50;;;;;;;35.90;22.23;;;;;;;;;;5144167;27;20108;-58
2023/12/19 07:28:16;;;;;;;36.92;21.55;;;;;;;;;;5143790;27;20527;-56
2023/12/19 07:30:43;;;;;;;35.55;20.33;;;;;;;;;;5143618;27;20581;-56
2023/12/19 07:33:11;;;;;;;35.88;20.88;;;;;;;;;;5143108;27;20052;-57
2023/12/19 07:35:37;;;;;;;41.78;22.58;;;;;;;;;;5143360;27;20082;-57
2023/12/19 07:38:04;;;;;;;40.20;22.80;;;;;;;;;;5144168;27;20055;-57
2023/12/19 07:40:31;;;;;;;36.67;22.27;;;;;;;;;;5144068;27;20138;-57
2023/12/19 07:42:57;;;;;;;37.80;21.63;;;;;;;;;;5150993;27;20054;-57
2023/12/19 07:45:24;;;;;;;43.08;24.52;;;;;;;;;;5148981;27;20057;-57
2023/12/19 07:47:52;;;;;;;36.97;21.35;;;;;;;;;;5144275;27;20056;-57
2023/12/19 07:50:18;;;;;;;41.97;22.33;;;;;;;;;;5144439;27;20110;-56
2023/12/19 07:52:45;;;;;;;41.15;21.88;;;;;;;;;;5143751;27;20608;-57
2023/12/19 07:55:12;;;;;;;38.78;22.77;;;;;;;;;;5144555;27;20047;-57
2023/12/19 07:57:39;;;;;;;39.95;24.27;;;;;;;;;;5143704;27;20051;-57
2023/12/19 08:00:06;;;;;;;42.03;23.23;;;;;;;;;;5144133;27;20135;-57
2023/12/19 08:02:33;;;;;;;42.50;24.50;;;;;;;;;;5144022;27;20609;-57
2023/12/19 08:04:59;;;;;;;42.88;23.73;;;;;;;;;;5143883;27;20054;-58
2023/12/19 08:07:26;;;;;;;45.63;25.30;;;;;;;;;;5143785;27;20135;-58
2023/12/19 08:09:53;;;;;;;41.80;23.35;;;;;;;;;;5143892;27;20055;-57
2023/12/19 08:12:19;;;;;;;39.70;23.73;;;;;;;;;;5143321;27;20054;-58
2023/12/19 08:14:47;;;;;;;42.47;24.50;;;;;;;;;;5143444;27;20532;-57
2023/12/19 08:17:14;;;;;;;45.63;25.80;;;;;;;;;;5144172;27;20063;-55
2023/12/19 08:19:41;;;;;;;46.15;26.00;;;;;;;;;;5142966;27;20175;-58
2023/12/19 08:22:08;;;;;;;49.25;26.75;;;;;;;;;;5143625;27;20058;-58
2023/12/19 08:24:34;;;;;;;44.58;25.20;;;;;;;;;;5142109;27;20554;-58
2023/12/19 08:27:02;;;;;;;42.65;24.75;;;;;;;;;;5142369;27;20097;-59
2023/12/19 08:29:29;;;;;;;50.70;24.58;;;;;;;;;;5143528;27;20138;-57
2023/12/19 08:31:55;;;;;;;43.97;24.42;;;;;;;;;;5142866;27;20510;-58
2023/12/19 08:34:21;;;;;;;45.88;25.75;;;;;;;;;;5143880;27;20061;-57
2023/12/19 08:36:48;;;;;;;43.50;23.55;;;;;;;;;;5143566;27;20525;-57
2023/12/19 08:39:14;;;;;;;41.13;23.60;;;;;;;;;;5143705;27;20055;-58
2023/12/19 08:41:43;;;;;;;42.13;23.50;;;;;;;;;;5142325;27;20501;-58
2023/12/19 08:44:10;;;;;;;42.38;22.67;;;;;;;;;;5146536;27;20123;-57
2023/12/19 08:46:36;;;;;;;45.35;24.70;;;;;;;;;;5146243;27;20120;-57
2023/12/19 08:49:02;;;;;;;37.97;23.98;;;;;;;;;;5147057;27;20131;-58
2023/12/19 08:51:29;;;;;;;43.60;26.02;;;;;;;;;;5147160;27;20059;-58
2023/12/19 08:53:56;;;;;;;42.63;23.13;;;;;;;;;;5159319;27;20075;-58
2023/12/19 08:56:23;;;;;;;41.78;22.38;;;;;;;;;;5151560;27;20051;-57
2023/12/19 08:58:49;;;;;;;33.63;22.15;;;;;;;;;;5146476;27;20066;-56
2023/12/19 09:01:17;;;;;;;37.20;23.15;;;;;;;;;;5146697;27;20058;-58
2023/12/19 09:03:44;;;;;;;37.33;22.73;;;;;;;;;;5146767;27;20055;-57
2023/12/19 09:06:11;;;;;;;42.83;24.08;;;;;;;;;;5140099;27;20113;-55
2023/12/19 09:08:37;;;;;;;36.95;23.45;;;;;;;;;;5129806;27;20162;-56
2023/12/19 09:11:04;;;;;;;35.53;22.00;;;;;;;;;;5145473;27;20063;-56
2023/12/19 09:13:31;;;;;;;35.65;22.20;;;;;;;;;;5149866;27;20333;-58
2023/12/19 09:16:00;;;;;;;36.08;20.70;;;;;;;;;;5146431;27;20494;-56
2023/12/19 09:18:27;;;;;;;34.40;21.17;;;;;;;;;;5146103;27;20057;-57
2023/12/19 09:20:53;;;;;;;35.15;22.23;;;;;;;;;;5133897;27;20047;-59
2023/12/19 09:23:20;;;;;;;35.30;22.83;;;;;;;;;;5146696;27;20059;-56
2023/12/19 09:25:46;;;;;;;35.70;21.50;;;;;;;;;;5144871;27;20117;-58
2023/12/19 09:28:13;;;;;;;33.65;21.30;;;;;;;;;;5146573;27;20051;-56
2023/12/19 09:30:39;;;;;;;33.30;20.67;;;;;;;;;;5145856;27;20104;-57
2023/12/19 09:33:06;;;;;;;30.55;20.00;;;;;;;;;;5144210;27;20509;-58
2023/12/19 09:35:32;;;;;;;33.03;19.25;;;;;;;;;;5146154;27;20489;-57
2023/12/19 09:38:01;;;;;;;30.17;19.08;;;;;;;;;;5145903;27;20051;-58
2023/12/19 09:40:29;;;;;;;26.25;18.90;;;;;;;;;;5145243;27;20138;-57
2023/12/19 09:42:59;;;;;;;32.30;18.70;;;;;;;;;;5145900;27;20054;-58
2023/12/19 09:45:25;;;;;;;25.80;17.48;;;;;;;;;;5145090;27;20052;-57
2023/12/19 09:48:01;;;;;;;31.67;19.23;;;;;;;;;;5145411;27;20104;-58
2023/12/19 09:50:28;;;;;;;28.70;18.73;;;;;;;;;;5145814;27;20062;-57
2023/12/19 09:52:59;;;;;;;31.30;18.52;;;;;;;;;;5145287;27;20104;-57
2023/12/19 09:55:26;;;;;;;27.17;17.23;;;;;;;;;;5145603;27;20055;-57
2023/12/19 09:57:54;;;;;;;24.95;17.73;;;;;;;;;;5146280;27;20150;-57
2023/12/19 10:00:21;;;;;;;26.45;18.40;;;;;;;;;;5145772;27;20059;-58
2023/12/19 10:02:48;;;;;;;31.00;19.48;;;;;;;;;;5144181;27;20479;-57
2023/12/19 10:05:14;;;;;;;23.95;17.60;;;;;;;;;;5145181;27;20428;-56
2023/12/19 10:07:41;;;;;;;28.88;18.15;;;;;;;;;;5145443;27;20051;-58
2023/12/19 10:10:11;;;;;;;27.67;18.08;;;;;;;;;;5142675;27;20051;-57
2023/12/19 10:12:50;;;;;;;30.58;18.67;;;;;;;;;;5134511;27;20055;-58
2023/12/19 10:15:19;;;;;;;26.45;18.23;;;;;;;;;;5144966;27;20116;-58
2023/12/19 10:18:11;;;;;;;28.88;19.20;;;;;;;;;;5144969;27;20094;-58
2023/12/19 10:20:38;;;;;;;32.70;19.98;;;;;;;;;;5129238;27;20501;-58
2023/12/19 10:23:05;;;;;;;26.60;17.85;;;;;;;;;;5144692;27;20055;-58
2023/12/19 10:25:33;;;;;;;24.85;16.55;;;;;;;;;;5144976;27;20047;-58
2023/12/19 10:28:12;;;;;;;26.48;18.10;;;;;;;;;;5153345;27;20055;-57
2023/12/19 10:30:39;;;;;;;25.63;17.45;;;;;;;;;;5166214;27;20055;-58
2023/12/19 10:33:06;;;;;;;23.67;17.05;;;;;;;;;;5152802;27;20134;-57
2023/12/19 10:35:36;;;;;;;26.85;16.67;;;;;;;;;;5143647;27;20074;-57
2023/12/19 10:38:02;;;;;;;28.58;18.83;;;;;;;;;;5143431;27;20096;-57
2023/12/19 10:40:31;;;;;;;24.83;15.98;;;;;;;;;;5145238;27;20569;-57
2023/12/19 10:42:58;;;;;;;22.23;16.05;;;;;;;;;;5150469;27;20055;-58
2023/12/19 10:45:24;;;;;;;21.58;15.60;;;;;;;;;;5162191;27;20051;-57
2023/12/19 10:47:51;;;;;;;21.17;15.13;;;;;;;;;;5145367;27;20514;-57
2023/12/19 10:50:18;;;;;;;22.25;15.20;;;;;;;;;;5145180;27;20055;-58
2023/12/19 10:52:48;;;;;;;21.48;14.85;;;;;;;;;;5143293;27;20108;-55
2023/12/19 10:55:17;;;;;;;24.95;15.80;;;;;;;;;;5145080;27;20428;-59
2023/12/19 10:57:50;;;;;;;22.90;15.30;;;;;;;;;;5144939;27;20576;-58
2023/12/19 11:00:21;;;;;;;23.60;16.50;;;;;;;;;;5144201;27;20047;-57
2023/12/19 11:03:05;;;;;;;20.83;14.77;;;;;;;;;;5145249;27;20571;-58
2023/12/19 11:05:42;;;;;;;18.30;13.68;;;;;;;;;;5140871;27;20047;-58
2023/12/19 11:08:13;;;;;;;23.83;14.73;;;;;;;;;;5151918;27;20629;-58
2023/12/19 11:10:40;;;;;;;21.48;14.27;;;;;;;;;;5165929;27;20050;-57
2023/12/19 11:13:06;;;;;;;19.88;13.95;;;;;;;;;;5156385;27;20138;-57
2023/12/19 11:15:34;;;;;;;23.08;14.85;;;;;;;;;;5142806;27;20051;-57
2023/12/19 11:18:04;;;;;;;19.67;13.77;;;;;;;;;;5143571;27;20059;-58
2023/12/19 11:20:38;;;;;;;19.85;14.23;;;;;;;;;;5143590;27;20047;-56
2023/12/19 11:23:14;;;;;;;22.55;15.27;;;;;;;;;;5144675;27;20053;-56
2023/12/19 11:25:44;;;;;;;20.17;14.48;;;;;;;;;;5144258;27;20055;-56
2023/12/19 11:28:11;;;;;;;21.52;14.38;;;;;;;;;;5144679;27;20493;-57
2023/12/19 11:30:40;;;;;;;23.35;14.75;;;;;;;;;;5144073;27;20468;-56
2023/12/19 11:33:07;;;;;;;19.67;14.07;;;;;;;;;;5144136;27;20116;-55
2023/12/19 11:35:34;;;;;;;24.00;15.43;;;;;;;;;;5143576;27;20065;-58
2023/12/19 11:38:13;;;;;;;27.45;15.88;;;;;;;;;;5144460;27;20152;-56
2023/12/19 11:40:47;;;;;;;22.05;14.63;;;;;;;;;;5143923;27;20543;-55
2023/12/19 11:43:26;;;;;;;21.97;15.37;;;;;;;;;;5144786;27;20051;-58
2023/12/19 11:45:53;;;;;;;21.10;14.02;;;;;;;;;;5144605;27;20051;-57
2023/12/19 11:48:39;;;;;;;20.92;15.07;;;;;;;;;;5145057;27;20075;-56
2023/12/19 11:51:07;;;;;;;;;;;;;;;;;;5143571;27;20577;-56
2023/12/19 11:53:34;;;;;;;20.48;13.38;;;;;;;;;;5145697;27;44582;-53
2023/12/19 11:56:11;;;;;;;16.23;11.95;;;;;;;;;;5158198;27;20531;-56
2023/12/19 11:58:45;;;;;;;16.67;11.25;;;;;;;;;;5141225;27;20154;-56
2023/12/19 12:01:11;;;;;;;18.55;12.13;;;;;;;;;;5139122;27;20055;-57
2023/12/19 12:03:38;;;;;;;18.27;12.20;;;;;;;;;;5144128;27;20047;-56
2023/12/19 12:06:06;;;;;;;15.13;10.75;;;;;;;;;;5143474;27;20143;-56
2023/12/19 12:08:32;;;;;;;15.75;11.43;;;;;;;;;;5142612;27;20051;-57
2023/12/19 12:11:00;;;;;;;17.10;10.40;;;;;;;;;;5144376;27;20131;-58
2023/12/19 12:13:27;;;;;;;18.13;9.95;;;;;;;;;;5143017;27;20116;-57
2023/12/19 12:15:55;;;;;;;16.67;10.07;;;;;;;;;;5143545;27;20051;-56
2023/12/19 12:18:21;;;;;;;16.45;10.48;;;;;;;;;;5146454;27;20051;-56
2023/12/19 12:20:48;;;;;;;15.98;11.68;;;;;;;;;;5147540;27;20574;-57
2023/12/19 12:23:19;;;;;;;16.25;12.27;;;;;;;;;;5146889;27;20119;-57
2023/12/19 12:25:53;;;;;;;12.90;10.15;;;;;;;;;;5147161;27;20116;-58
2023/12/19 12:28:21;;;;;;;12.02;9.55;;;;;;;;;;5147476;27;20043;-57
2023/12/19 12:30:51;;;;;;;11.88;8.73;;;;;;;;;;5134974;27;20097;-58
2023/12/19 12:33:18;;;;;;;14.35;8.90;;;;;;;;;;5148355;27;20055;-56
2023/12/19 12:35:44;;;;;;;12.13;9.70;;;;;;;;;;5144932;27;20055;-57
2023/12/19 12:38:16;;;;;;;11.50;9.13;;;;;;;;;;5132700;27;20083;-56
2023/12/19 12:40:59;;;;;;;11.65;8.75;;;;;;;;;;5125856;27;20056;-57
2023/12/19 12:43:28;;;;;;;12.98;9.25;;;;;;;;;;5158026;27;20054;-58
2023/12/19 12:46:05;;;;;;;10.70;8.57;;;;;;;;;;5147265;27;20108;-57
2023/12/19 12:48:31;;;;;;;10.02;8.25;;;;;;;;;;5145952;27;20524;-57
2023/12/19 12:50:58;;;;;;;10.50;7.68;;;;;;;;;;5146869;27;20058;-58
2023/12/19 12:53:25;;;;;;;10.75;8.55;;;;;;;;;;5148118;27;20493;-58
2023/12/19 12:56:05;;;;;;;16.60;14.20;;;;;;;;;;5132954;27;20059;-56
2023/12/19 12:58:32;;;;;;;11.02;7.80;;;;;;;;;;5155936;27;20087;-56
2023/12/19 13:00:58;;;;;;;11.25;7.35;;;;;;;;;;5146873;27;20075;-58
2023/12/19 13:03:25;;;;;;;15.00;10.75;;;;;;;;;;5146227;27;20047;-59
2023/12/19 13:05:51;;;;;;;13.57;11.02;;;;;;;;;;5146501;27;20505;-58
2023/12/19 13:08:18;;;;;;;9.90;8.15;;;;;;;;;;5147185;27;20421;-56
2023/12/19 13:10:45;;;;;;;10.88;7.40;;;;;;;;;;5147908;27;20108;-58
2023/12/19 13:13:13;;;;;;;18.10;14.05;;;;;;;;;;5150098;27;20055;-57
2023/12/19 13:15:40;;;;;;;21.02;16.75;;;;;;;;;;5146474;27;20050;-58
2023/12/19 13:18:08;;;;;;;9.88;7.97;;;;;;;;;;5145722;27;20051;-58
2023/12/19 13:20:36;;;;;;;8.88;6.55;;;;;;;;;;5146154;27;20096;-56
2023/12/19 13:23:06;;;;;;;9.77;6.95;;;;;;;;;;5146147;27;20058;-58
2023/12/19 13:25:33;;;;;;;8.65;7.25;;;;;;;;;;5146235;27;20078;-58
2023/12/19 13:28:01;;;;;;;13.27;9.55;;;;;;;;;;5145674;27;20058;-58
2023/12/19 13:30:29;;;;;;;10.07;7.18;;;;;;;;;;5145895;27;20055;-57
2023/12/19 13:32:56;;;;;;;11.63;7.40;;;;;;;;;;5140018;27;20048;-57
2023/12/19 13:35:23;;;;;;;9.20;6.47;;;;;;;;;;5138681;27;20189;-57
2023/12/19 13:37:49;;;;;;;8.05;6.55;;;;;;;;;;5147724;27;20054;-57
2023/12/19 13:40:16;;;;;;;8.40;6.70;;;;;;;;;;5147754;27;20527;-55
2023/12/19 13:42:42;;;;;;;8.90;6.60;;;;;;;;;;5152037;27;20215;-58
2023/12/19 13:45:09;;;;;;;9.15;6.35;;;;;;;;;;5145812;27;20139;-57
2023/12/19 13:47:35;;;;;;;9.30;8.10;;;;;;;;;;5130184;27;20113;-58
2023/12/19 13:50:01;;;;;;;6.90;6.20;;;;;;;;;;5142274;27;20054;-58
2023/12/19 13:52:28;;;;;;;10.88;7.57;;;;;;;;;;5142483;27;20047;-58
2023/12/19 13:54:54;;;;;;;7.20;5.60;;;;;;;;;;5128891;27;20553;-57
2023/12/19 13:57:22;;;;;;;10.98;7.88;;;;;;;;;;5144813;27;20145;-57
2023/12/19 13:59:48;;;;;;;8.63;6.18;;;;;;;;;;5152396;27;20511;-58
2023/12/19 14:02:18;;;;;;;7.50;6.18;;;;;;;;;;5140518;27;20130;-58
2023/12/19 14:04:44;;;;;;;6.60;5.85;;;;;;;;;;5140779;27;20436;-57
2023/12/19 14:07:14;;;;;;;7.93;5.45;;;;;;;;;;5143981;27;20459;-56
2023/12/19 14:09:41;;;;;;;8.35;6.05;;;;;;;;;;5137374;27;20084;-58
2023/12/19 14:12:07;;;;;;;10.60;6.43;;;;;;;;;;5145794;27;20051;-53
2023/12/19 14:14:34;;;;;;;8.60;6.35;;;;;;;;;;5144857;27;20049;-56
2023/12/19 14:17:01;;;;;;;7.45;5.88;;;;;;;;;;5140821;27;20224;-58
2023/12/19 14:19:27;;;;;;;8.15;6.80;;;;;;;;;;5144524;27;20135;-57